sensor_id;sensor_type;location;lat;lon;timestamp;P1;durP1;ratioP1;P2;durP2;ratioP2
46755;SDS011;32506;52.826;-1.192;2022-11-02T00:02:07;4.50;;;1.08;;
46755;SDS011;32506;52.826;-1.192;2022-11-02T00:04:32;2.72;;;0.50;;
46755;SDS011;32506;52.826;-1.192;2022-11-02T00:06:58;6.15;;;0.90;;
46755;SDS011;32506;52.826;-1.192;2022-11-02T00:09:23;4.03;;;0.73;;
46755;SDS011;32506;52.826;-1.192;2022-11-02T00:11:49;4.53;;;0.77;;
46755;SDS011;32506;52.826;-1.192;2022-11-02T00:14:14;4.30;;;1.52;;
46755;SDS011;32506;52.826;-1.192;2022-11-02T00:16:40;3.00;;;0.65;;
46755;SDS011;32506;52.826;-1.192;2022-11-02T00:19:06;4.30;;;0.80;;
46755;SDS011;32506;52.826;-1.192;2022-11-02T00:21:34;6.50;;;0.88;;
46755;SDS011;32506;52.826;-1.192;2022-11-02T00:24:00;3.50;;;0.50;;
46755;SDS011;32506;52.826;-1.192;2022-11-02T00:26:27;3.38;;;0.60;;
46755;SDS011;32506;52.826;-1.192;2022-11-02T00:28:53;5.10;;;0.70;;
46755;SDS011;32506;52.826;-1.192;2022-11-02T00:31:19;3.75;;;0.50;;
46755;SDS011;32506;52.826;-1.192;2022-11-02T00:33:44;3.60;;;0.70;;
46755;SDS011;32506;52.826;-1.192;2022-11-02T00:36:10;2.15;;;0.73;;
46755;SDS011;32506;52.826;-1.192;2022-11-02T00:38:36;2.35;;;0.60;;
46755;SDS011;32506;52.826;-1.192;2022-11-02T00:41:02;3.08;;;0.57;;
46755;SDS011;32506;52.826;-1.192;2022-11-02T00:43:27;2.80;;;0.80;;
46755;SDS011;32506;52.826;-1.192;2022-11-02T00:45:53;3.63;;;0.52;;
46755;SDS011;32506;52.826;-1.192;2022-11-02T00:48:18;3.45;;;0.80;;
46755;SDS011;32506;52.826;-1.192;2022-11-02T00:50:44;5.65;;;0.77;;
46755;SDS011;32506;52.826;-1.192;2022-11-02T00:53:09;3.95;;;0.60;;
46755;SDS011;32506;52.826;-1.192;2022-11-02T00:55:35;5.72;;;0.70;;
46755;SDS011;32506;52.826;-1.192;2022-11-02T00:58:01;4.90;;;0.90;;
46755;SDS011;32506;52.826;-1.192;2022-11-02T01:00:26;2.13;;;0.63;;
46755;SDS011;32506;52.826;-1.192;2022-11-02T01:02:52;2.72;;;0.65;;
46755;SDS011;32506;52.826;-1.192;2022-11-02T01:05:17;3.67;;;0.60;;
46755;SDS011;32506;52.826;-1.192;2022-11-02T01:07:43;1.40;;;0.50;;
46755;SDS011;32506;52.826;-1.192;2022-11-02T01:10:08;3.53;;;0.70;;
46755;SDS011;32506;52.826;-1.192;2022-11-02T01:12:35;4.18;;;1.23;;
46755;SDS011;32506;52.826;-1.192;2022-11-02T01:15:02;1.35;;;0.40;;
46755;SDS011;32506;52.826;-1.192;2022-11-02T01:17:28;1.80;;;0.40;;
46755;SDS011;32506;52.826;-1.192;2022-11-02T01:19:54;5.78;;;1.10;;
46755;SDS011;32506;52.826;-1.192;2022-11-02T01:22:19;1.50;;;0.45;;
46755;SDS011;32506;52.826;-1.192;2022-11-02T01:24:47;1.92;;;0.40;;
46755;SDS011;32506;52.826;-1.192;2022-11-02T01:27:12;3.20;;;0.55;;
46755;SDS011;32506;52.826;-1.192;2022-11-02T01:29:38;3.88;;;0.73;;
46755;SDS011;32506;52.826;-1.192;2022-11-02T01:32:04;2.00;;;0.40;;
46755;SDS011;32506;52.826;-1.192;2022-11-02T01:34:29;4.00;;;0.77;;
46755;SDS011;32506;52.826;-1.192;2022-11-02T01:36:55;3.60;;;0.50;;
46755;SDS011;32506;52.826;-1.192;2022-11-02T01:39:20;5.30;;;0.70;;
46755;SDS011;32506;52.826;-1.192;2022-11-02T01:41:49;2.70;;;0.57;;
46755;SDS011;32506;52.826;-1.192;2022-11-02T01:44:27;2.13;;;0.40;;
46755;SDS011;32506;52.826;-1.192;2022-11-02T01:46:56;2.75;;;0.70;;
46755;SDS011;32506;52.826;-1.192;2022-11-02T01:49:27;3.55;;;0.85;;
46755;SDS011;32506;52.826;-1.192;2022-11-02T01:52:00;3.55;;;1.00;;
46755;SDS011;32506;52.826;-1.192;2022-11-02T01:54:31;3.03;;;0.70;;
46755;SDS011;32506;52.826;-1.192;2022-11-02T01:57:06;3.33;;;0.60;;
46755;SDS011;32506;52.826;-1.192;2022-11-02T01:59:36;1.83;;;0.50;;
46755;SDS011;32506;52.826;-1.192;2022-11-02T02:02:09;7.15;;;1.08;;
46755;SDS011;32506;52.826;-1.192;2022-11-02T02:04:41;2.80;;;0.55;;
46755;SDS011;32506;52.826;-1.192;2022-11-02T02:07:09;2.75;;;0.45;;
46755;SDS011;32506;52.826;-1.192;2022-11-02T02:09:36;3.22;;;0.60;;
46755;SDS011;32506;52.826;-1.192;2022-11-02T02:12:02;2.42;;;0.50;;
46755;SDS011;32506;52.826;-1.192;2022-11-02T02:14:31;2.72;;;0.60;;
46755;SDS011;32506;52.826;-1.192;2022-11-02T02:19:28;3.30;;;1.38;;
46755;SDS011;32506;52.826;-1.192;2022-11-02T02:22:14;3.90;;;0.50;;
46755;SDS011;32506;52.826;-1.192;2022-11-02T02:27:20;4.60;;;0.60;;
46755;SDS011;32506;52.826;-1.192;2022-11-02T02:29:56;4.30;;;0.68;;
46755;SDS011;32506;52.826;-1.192;2022-11-02T02:32:33;2.95;;;0.57;;
46755;SDS011;32506;52.826;-1.192;2022-11-02T02:37:54;5.00;;;0.70;;
46755;SDS011;32506;52.826;-1.192;2022-11-02T02:40:28;2.95;;;0.50;;
46755;SDS011;32506;52.826;-1.192;2022-11-02T02:43:05;4.85;;;0.77;;
46755;SDS011;32506;52.826;-1.192;2022-11-02T02:46:14;5.15;;;0.50;;
46755;SDS011;32506;52.826;-1.192;2022-11-02T02:48:34;3.95;;;0.75;;
46755;SDS011;32506;52.826;-1.192;2022-11-02T02:51:11;4.72;;;0.77;;
46755;SDS011;32506;52.826;-1.192;2022-11-02T02:53:44;2.92;;;0.50;;
46755;SDS011;32506;52.826;-1.192;2022-11-02T02:56:12;6.80;;;0.50;;
46755;SDS011;32506;52.826;-1.192;2022-11-02T03:01:48;4.00;;;0.77;;
46755;SDS011;32506;52.826;-1.192;2022-11-02T03:04:15;5.53;;;1.42;;
46755;SDS011;32506;52.826;-1.192;2022-11-02T03:06:45;3.00;;;0.75;;
46755;SDS011;32506;52.826;-1.192;2022-11-02T03:09:18;5.00;;;1.00;;
46755;SDS011;32506;52.826;-1.192;2022-11-02T03:18:08;7.30;;;0.80;;
46755;SDS011;32506;52.826;-1.192;2022-11-02T03:39:31;3.72;;;0.70;;
46755;SDS011;32506;52.826;-1.192;2022-11-02T03:42:01;5.68;;;1.40;;
46755;SDS011;32506;52.826;-1.192;2022-11-02T03:44:29;5.18;;;1.58;;
46755;SDS011;32506;52.826;-1.192;2022-11-02T03:46:58;5.03;;;1.08;;
46755;SDS011;32506;52.826;-1.192;2022-11-02T03:49:26;8.15;;;1.63;;
46755;SDS011;32506;52.826;-1.192;2022-11-02T03:51:54;5.85;;;0.85;;
46755;SDS011;32506;52.826;-1.192;2022-11-02T03:54:40;4.22;;;0.60;;
46755;SDS011;32506;52.826;-1.192;2022-11-02T03:57:08;4.18;;;0.85;;
46755;SDS011;32506;52.826;-1.192;2022-11-02T03:59:42;7.75;;;1.15;;
46755;SDS011;32506;52.826;-1.192;2022-11-02T04:02:09;3.17;;;0.70;;
46755;SDS011;32506;52.826;-1.192;2022-11-02T04:04:43;5.70;;;0.95;;
46755;SDS011;32506;52.826;-1.192;2022-11-02T04:07:12;6.78;;;1.02;;
46755;SDS011;32506;52.826;-1.192;2022-11-02T04:09:38;6.18;;;0.90;;
46755;SDS011;32506;52.826;-1.192;2022-11-02T04:12:03;7.28;;;1.50;;
46755;SDS011;32506;52.826;-1.192;2022-11-02T04:14:47;3.90;;;0.90;;
46755;SDS011;32506;52.826;-1.192;2022-11-02T04:17:13;7.85;;;1.15;;
46755;SDS011;32506;52.826;-1.192;2022-11-02T04:19:57;7.18;;;0.70;;
46755;SDS011;32506;52.826;-1.192;2022-11-02T04:22:22;7.47;;;1.17;;
46755;SDS011;32506;52.826;-1.192;2022-11-02T04:25:08;4.82;;;1.08;;
46755;SDS011;32506;52.826;-1.192;2022-11-02T04:27:42;5.60;;;0.73;;
46755;SDS011;32506;52.826;-1.192;2022-11-02T04:30:12;5.43;;;0.80;;
46755;SDS011;32506;52.826;-1.192;2022-11-02T04:32:39;5.82;;;0.70;;
46755;SDS011;32506;52.826;-1.192;2022-11-02T04:35:25;10.63;;;1.50;;
46755;SDS011;32506;52.826;-1.192;2022-11-02T04:37:50;4.80;;;0.75;;
46755;SDS011;32506;52.826;-1.192;2022-11-02T04:40:34;6.00;;;1.00;;
46755;SDS011;32506;52.826;-1.192;2022-11-02T04:43:00;6.45;;;1.10;;
46755;SDS011;32506;52.826;-1.192;2022-11-02T04:45:25;5.45;;;1.15;;
46755;SDS011;32506;52.826;-1.192;2022-11-02T04:47:51;6.90;;;1.00;;
46755;SDS011;32506;52.826;-1.192;2022-11-02T04:50:17;7.57;;;1.15;;
46755;SDS011;32506;52.826;-1.192;2022-11-02T04:52:43;6.72;;;1.20;;
46755;SDS011;32506;52.826;-1.192;2022-11-02T04:55:08;7.05;;;1.00;;
46755;SDS011;32506;52.826;-1.192;2022-11-02T04:57:34;7.90;;;1.27;;
46755;SDS011;32506;52.826;-1.192;2022-11-02T04:59:59;11.93;;;1.50;;
46755;SDS011;32506;52.826;-1.192;2022-11-02T05:02:25;5.55;;;0.95;;
46755;SDS011;32506;52.826;-1.192;2022-11-02T05:04:51;7.18;;;1.20;;
46755;SDS011;32506;52.826;-1.192;2022-11-02T05:07:16;7.72;;;1.15;;
46755;SDS011;32506;52.826;-1.192;2022-11-02T05:09:42;9.68;;;1.27;;
46755;SDS011;32506;52.826;-1.192;2022-11-02T05:12:07;5.68;;;0.90;;
46755;SDS011;32506;52.826;-1.192;2022-11-02T05:14:33;6.18;;;0.85;;
46755;SDS011;32506;52.826;-1.192;2022-11-02T05:16:58;5.47;;;1.05;;
46755;SDS011;32506;52.826;-1.192;2022-11-02T05:19:24;8.38;;;1.63;;
46755;SDS011;32506;52.826;-1.192;2022-11-02T05:21:50;10.95;;;2.45;;
46755;SDS011;32506;52.826;-1.192;2022-11-02T05:24:15;9.10;;;0.90;;
46755;SDS011;32506;52.826;-1.192;2022-11-02T05:26:41;9.30;;;1.20;;
46755;SDS011;32506;52.826;-1.192;2022-11-02T05:29:06;7.25;;;1.23;;
46755;SDS011;32506;52.826;-1.192;2022-11-02T05:31:32;7.25;;;1.13;;
46755;SDS011;32506;52.826;-1.192;2022-11-02T05:33:57;7.18;;;2.10;;
46755;SDS011;32506;52.826;-1.192;2022-11-02T05:36:23;7.28;;;1.15;;
46755;SDS011;32506;52.826;-1.192;2022-11-02T05:38:52;7.63;;;1.10;;
46755;SDS011;32506;52.826;-1.192;2022-11-02T05:41:18;11.68;;;2.15;;
46755;SDS011;32506;52.826;-1.192;2022-11-02T05:43:44;8.38;;;1.23;;
46755;SDS011;32506;52.826;-1.192;2022-11-02T05:46:09;4.50;;;1.00;;
46755;SDS011;32506;52.826;-1.192;2022-11-02T05:48:35;7.38;;;1.70;;
46755;SDS011;32506;52.826;-1.192;2022-11-02T05:51:01;7.82;;;1.05;;
46755;SDS011;32506;52.826;-1.192;2022-11-02T05:53:28;6.53;;;1.02;;
46755;SDS011;32506;52.826;-1.192;2022-11-02T05:55:57;6.07;;;1.05;;
46755;SDS011;32506;52.826;-1.192;2022-11-02T05:58:23;11.10;;;2.05;;
46755;SDS011;32506;52.826;-1.192;2022-11-02T06:00:48;8.40;;;1.00;;
46755;SDS011;32506;52.826;-1.192;2022-11-02T06:03:14;6.72;;;0.90;;
46755;SDS011;32506;52.826;-1.192;2022-11-02T06:05:41;4.20;;;1.10;;
46755;SDS011;32506;52.826;-1.192;2022-11-02T06:08:09;4.55;;;1.20;;
46755;SDS011;32506;52.826;-1.192;2022-11-02T06:10:35;6.43;;;1.25;;
46755;SDS011;32506;52.826;-1.192;2022-11-02T06:13:01;2.88;;;1.35;;
46755;SDS011;32506;52.826;-1.192;2022-11-02T06:15:28;6.60;;;1.50;;
46755;SDS011;32506;52.826;-1.192;2022-11-02T06:17:55;5.88;;;1.15;;
46755;SDS011;32506;52.826;-1.192;2022-11-02T06:20:20;6.93;;;1.15;;
46755;SDS011;32506;52.826;-1.192;2022-11-02T06:22:46;4.47;;;1.42;;
46755;SDS011;32506;52.826;-1.192;2022-11-02T06:25:14;4.75;;;0.80;;
46755;SDS011;32506;52.826;-1.192;2022-11-02T06:27:40;8.15;;;1.80;;
46755;SDS011;32506;52.826;-1.192;2022-11-02T06:30:13;7.97;;;1.60;;
46755;SDS011;32506;52.826;-1.192;2022-11-02T06:32:39;11.43;;;1.35;;
46755;SDS011;32506;52.826;-1.192;2022-11-02T06:35:10;7.60;;;1.27;;
46755;SDS011;32506;52.826;-1.192;2022-11-02T06:37:37;6.18;;;1.13;;
46755;SDS011;32506;52.826;-1.192;2022-11-02T06:40:02;5.70;;;1.13;;
46755;SDS011;32506;52.826;-1.192;2022-11-02T06:42:28;5.53;;;0.95;;
46755;SDS011;32506;52.826;-1.192;2022-11-02T06:44:56;6.32;;;1.40;;
46755;SDS011;32506;52.826;-1.192;2022-11-02T06:47:35;9.07;;;1.00;;
46755;SDS011;32506;52.826;-1.192;2022-11-02T06:50:02;6.32;;;1.02;;
46755;SDS011;32506;52.826;-1.192;2022-11-02T06:52:29;7.80;;;0.98;;
46755;SDS011;32506;52.826;-1.192;2022-11-02T06:54:54;7.85;;;0.85;;
46755;SDS011;32506;52.826;-1.192;2022-11-02T06:57:21;8.27;;;0.90;;
46755;SDS011;32506;52.826;-1.192;2022-11-02T06:59:46;6.55;;;1.00;;
46755;SDS011;32506;52.826;-1.192;2022-11-02T07:02:12;9.13;;;1.00;;
46755;SDS011;32506;52.826;-1.192;2022-11-02T07:04:38;6.57;;;1.10;;
46755;SDS011;32506;52.826;-1.192;2022-11-02T07:07:04;8.77;;;1.73;;
46755;SDS011;32506;52.826;-1.192;2022-11-02T07:09:29;9.50;;;1.17;;
46755;SDS011;32506;52.826;-1.192;2022-11-02T07:11:54;5.35;;;1.00;;
46755;SDS011;32506;52.826;-1.192;2022-11-02T07:14:20;7.80;;;0.95;;
46755;SDS011;32506;52.826;-1.192;2022-11-02T07:16:45;6.10;;;1.30;;
46755;SDS011;32506;52.826;-1.192;2022-11-02T07:19:11;8.13;;;1.20;;
46755;SDS011;32506;52.826;-1.192;2022-11-02T07:21:36;4.32;;;1.15;;
46755;SDS011;32506;52.826;-1.192;2022-11-02T07:24:02;7.88;;;0.80;;
46755;SDS011;32506;52.826;-1.192;2022-11-02T07:26:28;4.60;;;1.00;;
46755;SDS011;32506;52.826;-1.192;2022-11-02T07:28:53;10.27;;;1.38;;
46755;SDS011;32506;52.826;-1.192;2022-11-02T07:31:19;6.60;;;0.95;;
46755;SDS011;32506;52.826;-1.192;2022-11-02T07:33:44;2.90;;;0.80;;
46755;SDS011;32506;52.826;-1.192;2022-11-02T07:36:10;7.30;;;1.02;;
46755;SDS011;32506;52.826;-1.192;2022-11-02T07:38:35;8.50;;;1.15;;
46755;SDS011;32506;52.826;-1.192;2022-11-02T07:41:01;6.13;;;1.33;;
46755;SDS011;32506;52.826;-1.192;2022-11-02T07:43:26;4.97;;;1.10;;
46755;SDS011;32506;52.826;-1.192;2022-11-02T07:45:52;6.03;;;1.42;;
46755;SDS011;32506;52.826;-1.192;2022-11-02T07:48:18;7.13;;;1.02;;
46755;SDS011;32506;52.826;-1.192;2022-11-02T07:50:44;7.63;;;1.52;;
46755;SDS011;32506;52.826;-1.192;2022-11-02T07:53:09;7.53;;;1.35;;
46755;SDS011;32506;52.826;-1.192;2022-11-02T07:55:35;8.68;;;1.20;;
46755;SDS011;32506;52.826;-1.192;2022-11-02T07:58:01;6.00;;;1.00;;
46755;SDS011;32506;52.826;-1.192;2022-11-02T08:00:29;8.85;;;1.40;;
46755;SDS011;32506;52.826;-1.192;2022-11-02T08:03:01;9.90;;;1.30;;
46755;SDS011;32506;52.826;-1.192;2022-11-02T08:05:28;7.68;;;2.03;;
46755;SDS011;32506;52.826;-1.192;2022-11-02T08:08:05;8.98;;;1.30;;
46755;SDS011;32506;52.826;-1.192;2022-11-02T08:10:35;6.60;;;1.08;;
46755;SDS011;32506;52.826;-1.192;2022-11-02T08:13:02;8.35;;;1.20;;
46755;SDS011;32506;52.826;-1.192;2022-11-02T08:15:28;10.90;;;1.38;;
46755;SDS011;32506;52.826;-1.192;2022-11-02T08:18:00;6.40;;;1.40;;
46755;SDS011;32506;52.826;-1.192;2022-11-02T08:20:30;7.03;;;1.25;;
46755;SDS011;32506;52.826;-1.192;2022-11-02T08:22:56;13.82;;;1.88;;
46755;SDS011;32506;52.826;-1.192;2022-11-02T08:25:22;6.72;;;0.98;;
46755;SDS011;32506;52.826;-1.192;2022-11-02T08:27:48;3.95;;;0.90;;
46755;SDS011;32506;52.826;-1.192;2022-11-02T08:30:14;10.35;;;1.50;;
46755;SDS011;32506;52.826;-1.192;2022-11-02T08:32:39;7.82;;;1.45;;
46755;SDS011;32506;52.826;-1.192;2022-11-02T08:35:05;6.15;;;1.23;;
46755;SDS011;32506;52.826;-1.192;2022-11-02T08:37:31;7.47;;;1.50;;
46755;SDS011;32506;52.826;-1.192;2022-11-02T08:39:56;7.90;;;1.55;;
46755;SDS011;32506;52.826;-1.192;2022-11-02T08:42:22;6.72;;;1.25;;
46755;SDS011;32506;52.826;-1.192;2022-11-02T08:44:47;7.72;;;1.83;;
46755;SDS011;32506;52.826;-1.192;2022-11-02T08:47:13;12.02;;;1.75;;
46755;SDS011;32506;52.826;-1.192;2022-11-02T08:49:40;7.68;;;1.45;;
46755;SDS011;32506;52.826;-1.192;2022-11-02T08:52:06;8.60;;;1.40;;
46755;SDS011;32506;52.826;-1.192;2022-11-02T08:54:31;8.30;;;1.58;;
46755;SDS011;32506;52.826;-1.192;2022-11-02T08:56:57;4.70;;;1.23;;
46755;SDS011;32506;52.826;-1.192;2022-11-02T08:59:22;8.40;;;1.35;;
46755;SDS011;32506;52.826;-1.192;2022-11-02T09:01:48;6.82;;;1.75;;
46755;SDS011;32506;52.826;-1.192;2022-11-02T09:04:13;6.13;;;1.38;;
46755;SDS011;32506;52.826;-1.192;2022-11-02T09:06:39;8.30;;;1.75;;
46755;SDS011;32506;52.826;-1.192;2022-11-02T09:09:04;17.15;;;3.00;;
46755;SDS011;32506;52.826;-1.192;2022-11-02T09:11:30;9.13;;;1.52;;
46755;SDS011;32506;52.826;-1.192;2022-11-02T09:13:55;10.65;;;1.60;;
46755;SDS011;32506;52.826;-1.192;2022-11-02T09:16:21;10.00;;;1.42;;
46755;SDS011;32506;52.826;-1.192;2022-11-02T09:18:46;8.30;;;1.70;;
46755;SDS011;32506;52.826;-1.192;2022-11-02T09:21:12;10.93;;;1.35;;
46755;SDS011;32506;52.826;-1.192;2022-11-02T09:23:37;10.52;;;1.88;;
46755;SDS011;32506;52.826;-1.192;2022-11-02T09:26:03;14.15;;;1.83;;
46755;SDS011;32506;52.826;-1.192;2022-11-02T09:28:31;10.95;;;1.63;;
46755;SDS011;32506;52.826;-1.192;2022-11-02T09:30:57;17.83;;;2.22;;
46755;SDS011;32506;52.826;-1.192;2022-11-02T09:33:22;6.80;;;1.42;;
46755;SDS011;32506;52.826;-1.192;2022-11-02T09:35:48;8.10;;;1.40;;
46755;SDS011;32506;52.826;-1.192;2022-11-02T09:38:14;19.23;;;3.13;;
46755;SDS011;32506;52.826;-1.192;2022-11-02T09:50:37;10.57;;;1.60;;
46755;SDS011;32506;52.826;-1.192;2022-11-02T10:06:31;13.02;;;2.10;;
46755;SDS011;32506;52.826;-1.192;2022-11-02T10:16:54;15.15;;;1.92;;
46755;SDS011;32506;52.826;-1.192;2022-11-02T10:19:26;14.30;;;2.58;;
46755;SDS011;32506;52.826;-1.192;2022-11-02T10:21:57;10.85;;;1.58;;
46755;SDS011;32506;52.826;-1.192;2022-11-02T10:24:40;10.38;;;1.80;;
46755;SDS011;32506;52.826;-1.192;2022-11-02T10:32:42;10.20;;;1.52;;
46755;SDS011;32506;52.826;-1.192;2022-11-02T10:38:00;8.27;;;1.45;;
46755;SDS011;32506;52.826;-1.192;2022-11-02T10:40:54;12.48;;;1.55;;
46755;SDS011;32506;52.826;-1.192;2022-11-02T10:47:22;8.95;;;1.20;;
46755;SDS011;32506;52.826;-1.192;2022-11-02T10:49:51;9.30;;;1.33;;
46755;SDS011;32506;52.826;-1.192;2022-11-02T10:52:32;7.55;;;1.38;;
46755;SDS011;32506;52.826;-1.192;2022-11-02T10:55:02;8.57;;;1.30;;
46755;SDS011;32506;52.826;-1.192;2022-11-02T10:57:33;6.35;;;1.38;;
46755;SDS011;32506;52.826;-1.192;2022-11-02T11:08:42;7.15;;;1.73;;
46755;SDS011;32506;52.826;-1.192;2022-11-02T11:11:14;8.25;;;1.98;;
46755;SDS011;32506;52.826;-1.192;2022-11-02T11:13:59;9.80;;;1.50;;
46755;SDS011;32506;52.826;-1.192;2022-11-02T11:19:14;7.13;;;1.20;;
46755;SDS011;32506;52.826;-1.192;2022-11-02T11:21:42;8.55;;;1.98;;
46755;SDS011;32506;52.826;-1.192;2022-11-02T11:24:25;11.63;;;1.65;;
46755;SDS011;32506;52.826;-1.192;2022-11-02T11:27:25;9.30;;;1.50;;
46755;SDS011;32506;52.826;-1.192;2022-11-02T11:32:21;14.80;;;2.17;;
46755;SDS011;32506;52.826;-1.192;2022-11-02T11:34:52;8.25;;;1.17;;
46755;SDS011;32506;52.826;-1.192;2022-11-02T11:37:22;7.50;;;1.42;;
46755;SDS011;32506;52.826;-1.192;2022-11-02T11:39:51;12.15;;;2.92;;
46755;SDS011;32506;52.826;-1.192;2022-11-02T11:42:21;9.05;;;1.27;;
46755;SDS011;32506;52.826;-1.192;2022-11-02T11:44:54;12.65;;;1.30;;
46755;SDS011;32506;52.826;-1.192;2022-11-02T11:47:28;10.45;;;1.80;;
46755;SDS011;32506;52.826;-1.192;2022-11-02T11:50:01;11.13;;;2.28;;
46755;SDS011;32506;52.826;-1.192;2022-11-02T11:52:30;11.43;;;1.93;;
46755;SDS011;32506;52.826;-1.192;2022-11-02T11:54:57;11.43;;;1.52;;
46755;SDS011;32506;52.826;-1.192;2022-11-02T11:57:26;11.10;;;1.75;;
46755;SDS011;32506;52.826;-1.192;2022-11-02T11:59:56;9.65;;;1.35;;
46755;SDS011;32506;52.826;-1.192;2022-11-02T12:02:29;13.88;;;1.50;;
46755;SDS011;32506;52.826;-1.192;2022-11-02T12:05:13;8.30;;;1.70;;
46755;SDS011;32506;52.826;-1.192;2022-11-02T12:10:16;7.70;;;1.35;;
46755;SDS011;32506;52.826;-1.192;2022-11-02T12:18:39;9.38;;;2.15;;
46755;SDS011;32506;52.826;-1.192;2022-11-02T12:21:24;10.38;;;2.10;;
46755;SDS011;32506;52.826;-1.192;2022-11-02T12:29:52;15.02;;;1.58;;
46755;SDS011;32506;52.826;-1.192;2022-11-02T12:32:24;11.00;;;1.60;;
46755;SDS011;32506;52.826;-1.192;2022-11-02T12:40:43;8.15;;;1.20;;
46755;SDS011;32506;52.826;-1.192;2022-11-02T12:49:14;7.35;;;1.55;;
46755;SDS011;32506;52.826;-1.192;2022-11-02T12:58:12;12.40;;;3.45;;
46755;SDS011;32506;52.826;-1.192;2022-11-02T13:00:43;13.63;;;1.60;;
46755;SDS011;32506;52.826;-1.192;2022-11-02T13:05:54;12.38;;;2.45;;
46755;SDS011;32506;52.826;-1.192;2022-11-02T13:08:32;11.50;;;2.40;;
46755;SDS011;32506;52.826;-1.192;2022-11-02T13:10:59;9.88;;;1.77;;
46755;SDS011;32506;52.826;-1.192;2022-11-02T13:13:34;11.82;;;2.00;;
46755;SDS011;32506;52.826;-1.192;2022-11-02T13:16:13;10.52;;;1.75;;
46755;SDS011;32506;52.826;-1.192;2022-11-02T13:18:45;9.15;;;1.63;;
46755;SDS011;32506;52.826;-1.192;2022-11-02T13:21:15;12.98;;;2.00;;
46755;SDS011;32506;52.826;-1.192;2022-11-02T13:26:28;7.95;;;1.83;;
46755;SDS011;32506;52.826;-1.192;2022-11-02T13:31:55;14.23;;;2.92;;
46755;SDS011;32506;52.826;-1.192;2022-11-02T13:37:08;16.95;;;2.35;;
46755;SDS011;32506;52.826;-1.192;2022-11-02T13:39:49;13.73;;;2.55;;
46755;SDS011;32506;52.826;-1.192;2022-11-02T13:51:27;16.88;;;2.78;;
46755;SDS011;32506;52.826;-1.192;2022-11-02T13:54:31;14.23;;;2.53;;
46755;SDS011;32506;52.826;-1.192;2022-11-02T13:57:00;15.15;;;3.40;;
46755;SDS011;32506;52.826;-1.192;2022-11-02T13:59:35;15.07;;;2.80;;
46755;SDS011;32506;52.826;-1.192;2022-11-02T14:02:02;11.35;;;2.13;;
46755;SDS011;32506;52.826;-1.192;2022-11-02T14:04:38;14.00;;;2.30;;
46755;SDS011;32506;52.826;-1.192;2022-11-02T14:07:06;12.00;;;1.83;;
46755;SDS011;32506;52.826;-1.192;2022-11-02T14:09:44;14.70;;;2.40;;
46755;SDS011;32506;52.826;-1.192;2022-11-02T14:14:45;19.85;;;2.45;;
46755;SDS011;32506;52.826;-1.192;2022-11-02T14:28:26;13.80;;;2.70;;
46755;SDS011;32506;52.826;-1.192;2022-11-02T14:38:55;19.85;;;3.30;;
46755;SDS011;32506;52.826;-1.192;2022-11-02T14:41:30;14.27;;;3.45;;
46755;SDS011;32506;52.826;-1.192;2022-11-02T14:44:37;10.05;;;2.08;;
46755;SDS011;32506;52.826;-1.192;2022-11-02T14:47:18;14.05;;;2.92;;
46755;SDS011;32506;52.826;-1.192;2022-11-02T14:49:51;16.42;;;3.63;;
46755;SDS011;32506;52.826;-1.192;2022-11-02T14:52:30;16.58;;;2.67;;
46755;SDS011;32506;52.826;-1.192;2022-11-02T14:58:37;13.95;;;3.05;;
46755;SDS011;32506;52.826;-1.192;2022-11-02T15:03:35;16.90;;;3.33;;
46755;SDS011;32506;52.826;-1.192;2022-11-02T15:08:57;20.35;;;2.80;;
46755;SDS011;32506;52.826;-1.192;2022-11-02T15:25:15;15.55;;;3.40;;
46755;SDS011;32506;52.826;-1.192;2022-11-02T15:27:45;11.90;;;2.35;;
46755;SDS011;32506;52.826;-1.192;2022-11-02T15:30:14;17.52;;;3.40;;
46755;SDS011;32506;52.826;-1.192;2022-11-02T15:32:44;16.90;;;3.70;;
46755;SDS011;32506;52.826;-1.192;2022-11-02T15:35:21;17.15;;;2.83;;
46755;SDS011;32506;52.826;-1.192;2022-11-02T15:37:50;18.70;;;3.13;;
46755;SDS011;32506;52.826;-1.192;2022-11-02T15:40:21;14.05;;;2.17;;
46755;SDS011;32506;52.826;-1.192;2022-11-02T15:45:48;15.77;;;3.20;;
46755;SDS011;32506;52.826;-1.192;2022-11-02T15:51:07;12.50;;;2.80;;
46755;SDS011;32506;52.826;-1.192;2022-11-02T15:54:03;16.45;;;2.00;;
46755;SDS011;32506;52.826;-1.192;2022-11-02T15:59:41;22.55;;;4.40;;
46755;SDS011;32506;52.826;-1.192;2022-11-02T16:04:49;13.23;;;2.97;;
46755;SDS011;32506;52.826;-1.192;2022-11-02T16:07:17;14.10;;;2.45;;
46755;SDS011;32506;52.826;-1.192;2022-11-02T16:09:44;17.83;;;3.35;;
46755;SDS011;32506;52.826;-1.192;2022-11-02T16:12:11;13.82;;;3.42;;
46755;SDS011;32506;52.826;-1.192;2022-11-02T16:14:43;11.32;;;2.50;;
46755;SDS011;32506;52.826;-1.192;2022-11-02T16:17:22;12.95;;;2.55;;
46755;SDS011;32506;52.826;-1.192;2022-11-02T16:20:08;15.07;;;2.28;;
46755;SDS011;32506;52.826;-1.192;2022-11-02T16:22:40;17.85;;;3.10;;
46755;SDS011;32506;52.826;-1.192;2022-11-02T16:25:18;14.90;;;3.25;;
46755;SDS011;32506;52.826;-1.192;2022-11-02T16:27:51;14.82;;;2.58;;
46755;SDS011;32506;52.826;-1.192;2022-11-02T16:30:18;13.77;;;2.38;;
46755;SDS011;32506;52.826;-1.192;2022-11-02T16:32:45;13.68;;;2.63;;
46755;SDS011;32506;52.826;-1.192;2022-11-02T16:35:13;15.50;;;2.92;;
46755;SDS011;32506;52.826;-1.192;2022-11-02T16:37:41;15.98;;;2.53;;
46755;SDS011;32506;52.826;-1.192;2022-11-02T16:40:11;16.60;;;2.45;;
46755;SDS011;32506;52.826;-1.192;2022-11-02T16:42:51;18.83;;;2.63;;
46755;SDS011;32506;52.826;-1.192;2022-11-02T16:45:34;13.63;;;2.53;;
46755;SDS011;32506;52.826;-1.192;2022-11-02T16:48:02;11.90;;;2.65;;
46755;SDS011;32506;52.826;-1.192;2022-11-02T16:50:41;18.67;;;2.75;;
46755;SDS011;32506;52.826;-1.192;2022-11-02T16:53:25;14.93;;;2.83;;
46755;SDS011;32506;52.826;-1.192;2022-11-02T16:55:55;21.58;;;3.05;;
46755;SDS011;32506;52.826;-1.192;2022-11-02T16:58:46;14.85;;;3.35;;
46755;SDS011;32506;52.826;-1.192;2022-11-02T17:01:22;15.18;;;3.47;;
46755;SDS011;32506;52.826;-1.192;2022-11-02T17:03:48;16.95;;;4.00;;
46755;SDS011;32506;52.826;-1.192;2022-11-02T17:06:14;14.15;;;2.38;;
46755;SDS011;32506;52.826;-1.192;2022-11-02T17:08:49;16.70;;;2.92;;
46755;SDS011;32506;52.826;-1.192;2022-11-02T17:11:19;17.00;;;3.25;;
46755;SDS011;32506;52.826;-1.192;2022-11-02T17:13:54;14.80;;;3.90;;
46755;SDS011;32506;52.826;-1.192;2022-11-02T17:16:34;14.20;;;2.58;;
46755;SDS011;32506;52.826;-1.192;2022-11-02T17:19:55;17.38;;;4.00;;
46755;SDS011;32506;52.826;-1.192;2022-11-02T17:22:47;16.67;;;2.85;;
46755;SDS011;32506;52.826;-1.192;2022-11-02T17:25:19;10.95;;;2.13;;
46755;SDS011;32506;52.826;-1.192;2022-11-02T17:27:57;15.38;;;2.80;;
46755;SDS011;32506;52.826;-1.192;2022-11-02T17:33:08;14.75;;;3.17;;
46755;SDS011;32506;52.826;-1.192;2022-11-02T17:35:45;10.68;;;2.20;;
46755;SDS011;32506;52.826;-1.192;2022-11-02T17:38:17;14.75;;;3.15;;
46755;SDS011;32506;52.826;-1.192;2022-11-02T17:40:57;11.02;;;2.20;;
46755;SDS011;32506;52.826;-1.192;2022-11-02T17:43:27;11.45;;;2.45;;
46755;SDS011;32506;52.826;-1.192;2022-11-02T17:45:59;10.63;;;2.22;;
46755;SDS011;32506;52.826;-1.192;2022-11-02T17:48:25;12.50;;;2.38;;
46755;SDS011;32506;52.826;-1.192;2022-11-02T17:50:55;13.10;;;2.10;;
46755;SDS011;32506;52.826;-1.192;2022-11-02T17:53:23;11.50;;;2.15;;
46755;SDS011;32506;52.826;-1.192;2022-11-02T17:55:49;14.63;;;2.88;;
46755;SDS011;32506;52.826;-1.192;2022-11-02T17:58:15;7.45;;;2.30;;
46755;SDS011;32506;52.826;-1.192;2022-11-02T18:00:41;14.02;;;2.85;;
46755;SDS011;32506;52.826;-1.192;2022-11-02T18:03:14;12.65;;;1.80;;
46755;SDS011;32506;52.826;-1.192;2022-11-02T18:05:42;11.20;;;2.13;;
46755;SDS011;32506;52.826;-1.192;2022-11-02T18:08:08;16.48;;;2.15;;
46755;SDS011;32506;52.826;-1.192;2022-11-02T18:10:44;12.77;;;2.10;;
46755;SDS011;32506;52.826;-1.192;2022-11-02T18:13:19;6.55;;;1.70;;